Clovis, New Mexico
Current Conditions -  °F | °C
As of 7:15 AM on Friday 19 Dec 2014 (Local Time) from KCVN Reporting Station
Overcast Overcast  
Wind Chill: 36°   Ceiling: 200
Heat Index: 36°   Visibility: 1mi
Dew Point: 34°   Wind: 3mph
Humidity: 93%   Direction: 220°SW
Pressure: 30.12"   Gusts: NA
Location:  34.41°N, 103.2°W
Report Text: KCVN 191415Z 22003KT 1SM OVC002 02/01 A3012 RMK AO1
Loading
Personal Weather Stations






























Interactive Weather Map New forecast layout! Learn more

10-Day Weather Forecast

Advertisements
Track Severe Weather on mobile